createdAt,value
2022-10-03T00:01:00.987Z,97403.44
2022-10-03T00:03:37.761Z,97409.59
2022-10-03T00:06:15.397Z,97409.59
2022-10-03T00:09:04.975Z,97416.66
2022-10-03T00:11:43.782Z,97413.16
2022-10-03T00:14:19.789Z,97419.28
2022-10-03T00:17:04.300Z,97425.31
2022-10-03T00:19:45.880Z,97427.13
2022-10-03T00:22:23.493Z,97428.81
2022-10-03T00:25:03.483Z,97434.75
2022-10-03T00:27:38.220Z,97441.72
2022-10-03T00:30:18.570Z,97438.16
2022-10-03T00:33:06.091Z,97431.16
2022-10-03T00:35:51.012Z,97436.44
2022-10-03T00:38:37.837Z,97434.75
2022-10-03T00:41:23.783Z,97441.72
2022-10-03T00:44:29.893Z,97450.50
2022-10-03T00:47:25.880Z,97453.88
2022-10-03T00:50:20.917Z,97451.22
2022-10-03T00:53:10.965Z,97447.75
2022-10-03T00:55:52.159Z,97446.16
2022-10-03T00:58:39.247Z,97444.47
2022-10-03T01:01:24.610Z,97452.09
2022-10-03T01:04:05.647Z,97457.97
2022-10-03T01:06:43.325Z,97460.59
2022-10-03T01:09:31.147Z,97458.16
2022-10-03T01:12:15.756Z,97452.69
2022-10-03T01:15:01.004Z,97443.03
2022-10-03T01:17:40.061Z,97442.09
2022-10-03T01:20:19.627Z,97447.31
2022-10-03T01:23:27.628Z,97450.03
2022-10-03T01:26:09.373Z,97458.91
2022-10-03T01:29:05.992Z,97453.72
2022-10-03T01:31:45.487Z,97450.41
2022-10-03T01:34:23.237Z,97448.94
2022-10-03T01:37:06.322Z,97452.50
2022-10-03T01:39:43.419Z,97448.25
2022-10-03T01:42:18.817Z,97457.63
2022-10-03T01:45:05.120Z,97455.88
2022-10-03T01:47:42.101Z,97476.72
2022-10-03T01:50:19.661Z,97467.03
2022-10-03T01:52:54.762Z,97484.09
2022-10-03T01:55:31.090Z,97491.47
2022-10-03T01:58:03.786Z,97495.47
2022-10-03T02:00:44.066Z,97498.31
2022-10-03T02:03:18.124Z,97508.88
2022-10-03T02:05:55.536Z,97510.75
2022-10-03T02:08:36.576Z,97508.22
2022-10-03T02:11:07.387Z,97503.75
2022-10-03T02:13:46.855Z,97511.53
2022-10-03T02:16:30.332Z,97510.75
2022-10-03T02:19:06.345Z,97513.56
2022-10-03T02:21:35.531Z,97515.50
2022-10-03T02:24:18.898Z,97510.22
2022-10-03T02:27:14.196Z,97507.66
2022-10-03T02:30:07.143Z,97509.44
2022-10-03T02:33:04.751Z,97510.94
2022-10-03T02:36:05.285Z,97515.50
2022-10-03T02:39:03.732Z,97500.03
2022-10-03T02:41:52.434Z,97503.41
2022-10-03T02:44:50.727Z,97512.19
2022-10-03T02:48:30.271Z,97505.00
2022-10-03T02:51:33.477Z,97503.34
2022-10-03T02:54:37.599Z,97502.28
2022-10-03T02:57:39.023Z,97499.66
2022-10-03T03:00:12.970Z,97503.97
2022-10-03T03:03:16.947Z,97499.25
2022-10-03T03:06:20.149Z,97502.00
2022-10-03T03:09:23.327Z,97503.69
2022-10-03T03:12:18.108Z,97496.81
2022-10-03T03:15:31.908Z,97494.16
2022-10-03T03:18:07.691Z,97496.88
2022-10-03T03:20:57.942Z,97498.47
2022-10-03T03:23:41.573Z,97492.66
2022-10-03T03:26:35.604Z,97492.78
2022-10-03T03:29:15.720Z,97485.69
2022-10-03T03:31:54.602Z,97497.94
2022-10-03T03:34:32.612Z,97483.34
2022-10-03T03:37:08.327Z,97486.81
2022-10-03T03:39:51.488Z,97489.75
2022-10-03T03:42:43.104Z,97492.31
2022-10-03T03:45:32.205Z,97499.47
2022-10-03T03:48:15.554Z,97492.19
2022-10-03T03:50:52.950Z,97495.78
2022-10-03T03:54:00.599Z,97490.72
2022-10-03T03:56:46.620Z,97487.94
2022-10-03T03:59:31.169Z,97502.88
2022-10-03T04:02:09.639Z,97500.31
2022-10-03T04:04:52.061Z,97506.63
2022-10-03T04:07:30.729Z,97502.09
2022-10-03T04:10:16.939Z,97500.59
2022-10-03T04:13:04.873Z,97508.59
2022-10-03T04:15:55.085Z,97508.59
2022-10-03T04:18:56.955Z,97504.00
2022-10-03T04:21:50.527Z,97500.41
2022-10-03T04:24:43.859Z,97511.91
2022-10-03T04:27:30.053Z,97507.59
2022-10-03T04:30:07.514Z,97510.31
2022-10-03T04:32:52.404Z,97505.31
2022-10-03T04:35:48.948Z,97520.31
2022-10-03T04:38:32.303Z,97523.59
2022-10-03T04:41:12.363Z,97525.47
2022-10-03T04:43:45.514Z,97524.00
2022-10-03T04:46:27.173Z,97524.72
2022-10-03T04:49:04.044Z,97532.66
2022-10-03T04:51:45.754Z,97527.56
2022-10-03T04:54:25.985Z,97531.81
2022-10-03T04:57:01.729Z,97524.72
2022-10-03T04:59:42.404Z,97530.13
2022-10-03T05:02:24.522Z,97529.28
2022-10-03T05:05:11.075Z,97534.56
2022-10-03T05:07:46.922Z,97536.16
2022-10-03T05:10:48.407Z,97530.97
2022-10-03T05:13:30.341Z,97538.69
2022-10-03T05:16:08.943Z,97537.75
2022-10-03T05:18:42.644Z,97536.81
2022-10-03T05:21:16.023Z,97534.16
2022-10-03T05:24:02.726Z,97538.59
2022-10-03T05:26:45.502Z,97542.66
2022-10-03T05:29:26.116Z,97550.84
2022-10-03T05:32:09.595Z,97544.56
2022-10-03T05:34:52.324Z,97557.00
2022-10-03T05:37:41.466Z,97557.75
2022-10-03T05:40:18.181Z,97571.31
2022-10-03T05:43:06.523Z,97574.72
2022-10-03T05:45:49.907Z,97573.22
2022-10-03T05:48:32.994Z,97575.94
2022-10-03T05:51:43.277Z,97576.53
2022-10-03T05:54:30.975Z,97581.88
2022-10-03T05:57:20.611Z,97582.72
2022-10-03T06:00:18.382Z,97584.44
2022-10-03T06:03:13.496Z,97581.03
2022-10-03T06:06:05.299Z,97593.22
2022-10-03T06:08:56.844Z,97588.69
2022-10-03T06:11:47.783Z,97593.97
2022-10-03T06:14:44.607Z,97587.53
2022-10-03T06:17:43.437Z,97590.09
2022-10-03T06:20:41.504Z,97591.03
2022-10-03T06:23:43.200Z,97591.03
2022-10-03T06:26:44.863Z,97596.03
2022-10-03T06:29:43.826Z,97591.31
2022-10-03T06:32:28.387Z,97603.50
2022-10-03T06:35:30.221Z,97604.34
2022-10-03T06:38:33.097Z,97609.41
2022-10-03T06:41:34.336Z,97606.50
2022-10-03T06:44:16.782Z,97622.47
2022-10-03T06:47:13.491Z,97615.09
2022-10-03T06:50:05.180Z,97610.56
2022-10-03T06:52:51.954Z,97620.09
2022-10-03T06:56:05.249Z,97620.09
2022-10-03T06:58:59.157Z,97617.34
2022-10-03T07:02:11.594Z,97620.72
2022-10-03T07:05:17.849Z,97624.25
2022-10-03T07:08:24.691Z,97631.88
2022-10-03T07:11:07.750Z,97634.53
2022-10-03T07:13:54.212Z,97635.19
2022-10-03T07:16:50.671Z,97629.81
2022-10-03T07:19:54.179Z,97633.00
2022-10-03T07:22:43.747Z,97633.47
2022-10-03T07:25:47.454Z,97641.19
2022-10-03T07:29:12.011Z,97640.34
2022-10-03T07:31:58.328Z,97650.44
2022-10-03T07:35:27.067Z,97654.50
2022-10-03T07:38:48.581Z,97644.31
2022-10-03T07:41:45.772Z,97651.13
2022-10-03T07:44:47.225Z,97652.00
2022-10-03T07:47:59.855Z,97652.03
2022-10-03T07:50:51.200Z,97656.78
2022-10-03T07:53:58.734Z,97656.78
2022-10-03T07:56:44.423Z,97660.94
2022-10-03T07:59:43.852Z,97660.81
2022-10-03T08:02:40.145Z,97660.72
2022-10-03T08:05:25.133Z,97664.88
2022-10-03T08:08:29.005Z,97661.97
2022-10-03T08:11:42.680Z,97657.41
2022-10-03T08:14:20.246Z,97670.34
2022-10-03T08:17:26.807Z,97660.53
2022-10-03T08:20:21.311Z,97665.19
2022-10-03T08:23:03.198Z,97664.19
2022-10-03T08:25:48.563Z,97672.13
2022-10-03T08:28:38.836Z,97667.47
2022-10-03T08:31:43.739Z,97680.38
2022-10-03T08:34:38.966Z,97673.00
2022-10-03T08:37:26.427Z,97669.41
2022-10-03T08:40:22.419Z,97666.56
2022-10-03T08:43:30.949Z,97677.91
2022-10-03T08:46:17.337Z,97678.53
2022-10-03T08:48:59.888Z,97674.53
2022-10-03T08:51:55.326Z,97674.34
2022-10-03T08:54:52.751Z,97666.00
2022-10-03T08:57:38.527Z,97662.94
2022-10-03T09:00:15.299Z,97669.09
2022-10-03T09:03:33.431Z,97663.28
2022-10-03T09:07:16.560Z,97665.84
2022-10-03T09:10:25.438Z,97667.88
2022-10-03T09:13:22.908Z,97662.16
2022-10-03T09:16:18.782Z,97670.13
2022-10-03T09:19:03.673Z,97672.44
2022-10-03T09:22:06.544Z,97667.47
2022-10-03T09:25:02.137Z,97669.91
2022-10-03T09:28:09.802Z,97661.31
2022-10-03T09:30:54.727Z,97664.50
2022-10-03T09:34:15.047Z,97661.19
2022-10-03T09:37:21.319Z,97664.59
2022-10-03T09:40:18.970Z,97662.16
2022-10-03T09:43:28.295Z,97660.03
2022-10-03T09:46:19.219Z,97646.72
2022-10-03T09:49:18.915Z,97655.28
2022-10-03T09:52:00.563Z,97644.69
2022-10-03T09:54:55.052Z,97648.06
2022-10-03T09:57:59.516Z,97652.00
2022-10-03T10:00:33.122Z,97652.97
2022-10-03T10:03:51.825Z,97645.13
2022-10-03T10:06:42.806Z,97646.72
2022-10-03T10:09:41.806Z,97643.66
2022-10-03T10:12:47.917Z,97641.75
2022-10-03T10:15:36.934Z,97648.81
2022-10-03T10:18:33.355Z,97642.25
2022-10-03T10:21:43.011Z,97649.75
2022-10-03T10:24:46.695Z,97653.16
2022-10-03T10:27:55.780Z,97647.84
2022-10-03T10:30:40.044Z,97655.19
2022-10-03T10:33:42.542Z,97652.75
2022-10-03T10:36:47.753Z,97658.22
2022-10-03T10:39:51.190Z,97662.13
2022-10-03T10:42:51.017Z,97653.09
2022-10-03T10:45:45.653Z,97654.69
2022-10-03T10:48:46.979Z,97652.38
2022-10-03T10:51:45.278Z,97653.00
2022-10-03T10:54:46.249Z,97651.75
2022-10-03T10:57:24.212Z,97652.09
2022-10-03T11:00:12.224Z,97641.56
2022-10-03T11:03:33.915Z,97641.25
2022-10-03T11:06:58.653Z,97637.97
2022-10-03T11:10:08.399Z,97639.56
2022-10-03T11:13:21.922Z,97641.56
2022-10-03T11:16:44.096Z,97639.25
2022-10-03T11:19:51.523Z,97638.31
2022-10-03T11:23:09.331Z,97633.50
2022-10-03T11:26:15.249Z,97639.00
2022-10-03T11:29:15.828Z,97634.63
2022-10-03T11:32:16.811Z,97639.34
2022-10-03T11:35:29.166Z,97644.22
2022-10-03T11:38:04.079Z,97644.72
2022-10-03T11:40:42.226Z,97636.16
2022-10-03T11:43:52.713Z,97640.94
2022-10-03T11:46:37.361Z,97634.69
2022-10-03T11:49:16.183Z,97638.94
2022-10-03T11:51:53.546Z,97633.44
2022-10-03T11:54:31.592Z,97639.41
2022-10-03T11:57:02.872Z,97642.69
2022-10-03T11:59:37.428Z,97638.34
2022-10-03T12:02:14.211Z,97636.25
2022-10-03T12:04:52.172Z,97631.56
2022-10-03T12:07:58.424Z,97631.13
2022-10-03T12:10:39.898Z,97630.66
2022-10-03T12:13:16.692Z,97627.56
2022-10-03T12:15:48.652Z,97624.91
2022-10-03T12:18:26.003Z,97628.72
2022-10-03T12:21:13.165Z,97631.75
2022-10-03T12:24:08.075Z,97625.88
2022-10-03T12:26:49.484Z,97622.53
2022-10-03T12:29:21.018Z,97623.13
2022-10-03T12:32:02.494Z,97612.13
2022-10-03T12:34:40.590Z,97610.69
2022-10-03T12:37:27.569Z,97608.91
2022-10-03T12:40:04.453Z,97596.72
2022-10-03T12:42:38.756Z,97597.44
2022-10-03T12:45:17.909Z,97595.00
2022-10-03T12:47:59.734Z,97592.59
2022-10-03T12:50:43.851Z,97599.09
2022-10-03T12:53:33.020Z,97592.59
2022-10-03T12:56:07.759Z,97592.59
2022-10-03T12:58:51.732Z,97586.56
2022-10-03T13:01:29.525Z,97592.50
2022-10-03T13:04:02.419Z,97587.78
2022-10-03T13:07:02.378Z,97590.94
2022-10-03T13:09:42.245Z,97581.03
2022-10-03T13:12:26.830Z,97572.84
2022-10-03T13:15:42.132Z,97570.66
2022-10-03T13:18:50.982Z,97570.66
2022-10-03T13:21:44.498Z,97572.97
2022-10-03T13:24:22.237Z,97574.53
2022-10-03T13:27:00.433Z,97567.31
2022-10-03T13:29:34.668Z,97573.75
2022-10-03T13:32:18.332Z,97573.00
2022-10-03T13:35:23.214Z,97579.78
2022-10-03T13:38:12.196Z,97568.59
2022-10-03T13:40:46.359Z,97570.53
2022-10-03T13:43:21.253Z,97566.28
2022-10-03T13:45:51.354Z,97574.16
2022-10-03T13:48:23.901Z,97568.84
2022-10-03T13:51:01.844Z,97578.00
2022-10-03T13:53:53.729Z,97569.91
2022-10-03T13:56:37.978Z,97570.31
2022-10-03T13:59:13.925Z,97564.16
2022-10-03T14:01:51.727Z,97555.56
2022-10-03T14:04:48.540Z,97564.59
2022-10-03T14:07:25.079Z,97559.16
2022-10-03T14:10:13.934Z,97560.16
2022-10-03T14:13:04.796Z,97560.03
2022-10-03T14:15:45.221Z,97557.25
2022-10-03T14:18:25.280Z,97551.94
2022-10-03T14:21:36.045Z,97542.53
2022-10-03T14:24:16.813Z,97546.75
2022-10-03T14:26:52.968Z,97543.13
2022-10-03T14:29:27.787Z,97543.00
2022-10-03T14:32:02.728Z,97546.41
2022-10-03T14:34:48.011Z,97542.28
2022-10-03T14:37:26.697Z,97535.16
2022-10-03T14:40:13.535Z,97535.53
2022-10-03T14:42:57.947Z,97535.28
2022-10-03T14:45:30.067Z,97535.75
2022-10-03T14:48:05.489Z,97532.13
2022-10-03T14:50:34.605Z,97533.72
2022-10-03T14:53:06.807Z,97530.56
2022-10-03T14:55:44.958Z,97532.59
2022-10-03T14:58:18.837Z,97529.00
2022-10-03T15:00:49.694Z,97530.94
2022-10-03T15:03:25.103Z,97529.22
2022-10-03T15:06:01.617Z,97528.50
2022-10-03T15:08:36.112Z,97528.50
2022-10-03T15:11:07.612Z,97526.81
2022-10-03T15:13:42.570Z,97521.25
2022-10-03T15:16:16.002Z,97523.19
2022-10-03T15:18:57.354Z,97522.47
2022-10-03T15:21:27.287Z,97526.19
2022-10-03T15:23:58.245Z,97520.53
2022-10-03T15:26:31.421Z,97527.53
2022-10-03T15:29:03.807Z,97522.56
2022-10-03T15:31:36.072Z,97522.94
2022-10-03T15:34:08.286Z,97522.09
2022-10-03T15:36:39.452Z,97515.31
2022-10-03T15:39:19.914Z,97522.56
2022-10-03T15:41:55.736Z,97519.53
2022-10-03T15:44:32.958Z,97526.91
2022-10-03T15:47:07.093Z,97527.75
2022-10-03T15:49:39.409Z,97520.84
2022-10-03T15:52:15.823Z,97519.25
2022-10-03T15:54:47.873Z,97509.25
2022-10-03T15:57:25.419Z,97510.19
2022-10-03T16:00:02.051Z,97513.19
2022-10-03T16:02:40.446Z,97518.63
2022-10-03T16:05:19.575Z,97514.41
2022-10-03T16:07:58.337Z,97515.59
2022-10-03T16:10:29.569Z,97516.06
2022-10-03T16:13:07.867Z,97511.59
2022-10-03T16:15:55.650Z,97507.50
2022-10-03T16:18:48.452Z,97518.47
2022-10-03T16:21:29.238Z,97506.88
2022-10-03T16:24:00.580Z,97507.22
2022-10-03T16:26:31.530Z,97501.50
2022-10-03T16:29:13.197Z,97496.09
2022-10-03T16:31:47.263Z,97499.09
2022-10-03T16:34:17.772Z,97494.97
2022-10-03T16:36:47.628Z,97503.28
2022-10-03T16:39:22.095Z,97506.19
2022-10-03T16:41:54.285Z,97513.53
2022-10-03T16:44:29.024Z,97508.69
2022-10-03T16:47:02.991Z,97511.56
2022-10-03T16:50:01.512Z,97517.22
2022-10-03T16:52:34.602Z,97521.88
2022-10-03T16:55:06.926Z,97529.56
2022-10-03T16:57:45.648Z,97535.06
2022-10-03T17:00:21.426Z,97538.06
2022-10-03T17:02:49.853Z,97533.00
2022-10-03T17:05:19.128Z,97524.75
2022-10-03T17:07:51.837Z,97520.88
2022-10-03T17:10:35.126Z,97513.78
2022-10-03T17:13:08.356Z,97512.19
2022-10-03T17:15:48.537Z,97513.47
2022-10-03T17:18:26.160Z,97514.97
2022-10-03T17:20:57.211Z,97518.16
2022-10-03T17:23:35.799Z,97513.19
2022-10-03T17:26:10.107Z,97511.69
2022-10-03T17:28:44.530Z,97507.03
2022-10-03T17:31:30.438Z,97498.81
2022-10-03T17:34:10.461Z,97494.44
2022-10-03T17:37:16.274Z,97494.38
2022-10-03T17:39:55.099Z,97498.19
2022-10-03T17:42:38.412Z,97499.66
2022-10-03T17:45:19.936Z,97508.88
2022-10-03T17:47:56.778Z,97507.16
2022-10-03T17:50:31.409Z,97510.25
2022-10-03T17:53:01.581Z,97513.31
2022-10-03T17:55:32.787Z,97508.31
2022-10-03T17:58:05.826Z,97506.22
2022-10-03T18:00:56.554Z,97503.03
2022-10-03T18:03:30.988Z,97502.28
2022-10-03T18:06:04.324Z,97499.50
2022-10-03T18:08:37.722Z,97498.97
2022-10-03T18:11:06.690Z,97494.53
2022-10-03T18:13:39.607Z,97492.19
2022-10-03T18:16:21.472Z,97491.66
2022-10-03T18:19:21.798Z,97494.50
2022-10-03T18:22:02.272Z,97495.00
2022-10-03T18:24:44.410Z,97490.22
2022-10-03T18:27:42.458Z,97488.72
2022-10-03T18:30:17.547Z,97491.63
2022-10-03T18:32:47.721Z,97482.41
2022-10-03T18:35:22.202Z,97493.41
2022-10-03T18:38:02.700Z,97490.31
2022-10-03T18:40:34.696Z,97488.06
2022-10-03T18:43:05.924Z,97488.34
2022-10-03T18:45:44.805Z,97493.00
2022-10-03T18:48:19.190Z,97494.88
2022-10-03T18:51:11.385Z,97502.25
2022-10-03T18:53:44.652Z,97500.66
2022-10-03T18:56:14.472Z,97498.69
2022-10-03T18:58:46.632Z,97496.03
2022-10-03T19:01:20.484Z,97499.06
2022-10-03T19:03:58.160Z,97496.81
2022-10-03T19:06:30.423Z,97493.72
2022-10-03T19:09:03.251Z,97493.72
2022-10-03T19:11:34.687Z,97492.31
2022-10-03T19:14:09.026Z,97498.94
2022-10-03T19:16:59.310Z,97505.13
2022-10-03T19:19:33.665Z,97506.53
2022-10-03T19:22:06.737Z,97504.78
2022-10-03T19:24:57.169Z,97511.38
2022-10-03T19:27:30.365Z,97504.56
2022-10-03T19:30:00.132Z,97511.72
2022-10-03T19:32:32.053Z,97503.06
2022-10-03T19:35:03.919Z,97502.22
2022-10-03T19:37:45.511Z,97508.69
2022-10-03T19:40:16.771Z,97498.34
2022-10-03T19:42:49.504Z,97497.69
2022-10-03T19:45:19.982Z,97496.16
2022-10-03T19:47:53.355Z,97487.69
2022-10-03T19:50:26.792Z,97494.00
2022-10-03T19:52:57.059Z,97495.13
2022-10-03T19:55:31.011Z,97503.94
2022-10-03T19:58:02.304Z,97490.03
2022-10-03T20:00:33.049Z,97483.88
2022-10-03T20:03:14.724Z,97492.84
2022-10-03T20:05:50.696Z,97489.91
2022-10-03T20:08:32.151Z,97494.41
2022-10-03T20:11:33.411Z,97491.19
2022-10-03T20:14:02.613Z,97491.19
2022-10-03T20:16:35.804Z,97489.59
2022-10-03T20:19:09.924Z,97492.69
2022-10-03T20:21:38.345Z,97483.06
2022-10-03T20:24:14.283Z,97487.50
2022-10-03T20:26:48.133Z,97481.72
2022-10-03T20:29:26.187Z,97486.25
2022-10-03T20:32:00.241Z,97496.06
2022-10-03T20:34:28.499Z,97492.00
2022-10-03T20:37:08.267Z,97485.13
2022-10-03T20:39:41.627Z,97493.22
2022-10-03T20:42:15.326Z,97490.00
2022-10-03T20:45:02.437Z,97490.94
2022-10-03T20:47:52.261Z,97489.31
2022-10-03T20:50:25.846Z,97487.31
2022-10-03T20:52:55.643Z,97485.44
2022-10-03T20:55:27.711Z,97488.25
2022-10-03T20:58:11.175Z,97484.09
2022-10-03T21:00:46.310Z,97493.03
2022-10-03T21:03:26.312Z,97488.94
2022-10-03T21:05:57.187Z,97478.59
2022-10-03T21:08:28.465Z,97490.22
2022-10-03T21:11:00.146Z,97476.28
2022-10-03T21:13:33.577Z,97467.63
2022-10-03T21:16:03.889Z,97471.13
2022-10-03T21:18:34.941Z,97465.16
2022-10-03T21:21:08.755Z,97465.50
2022-10-03T21:23:42.615Z,97465.69
2022-10-03T21:26:13.083Z,97463.13
2022-10-03T21:28:40.995Z,97456.16
2022-10-03T21:31:22.607Z,97452.88
2022-10-03T21:34:00.986Z,97446.06
2022-10-03T21:36:49.316Z,97453.28
2022-10-03T21:39:22.000Z,97450.56
2022-10-03T21:42:06.090Z,97440.22
2022-10-03T21:44:57.302Z,97438.69
2022-10-03T21:47:43.853Z,97439.59
2022-10-03T21:50:18.820Z,97445.88
2022-10-03T21:53:10.177Z,97444.19
2022-10-03T21:55:53.059Z,97437.34
2022-10-03T21:58:49.853Z,97444.47
2022-10-03T22:01:27.057Z,97437.47
2022-10-03T22:04:00.799Z,97434.09
2022-10-03T22:06:33.684Z,97439.38
2022-10-03T22:09:03.274Z,97438.75
2022-10-03T22:11:43.286Z,97439.69
2022-10-03T22:14:22.484Z,97428.47
2022-10-03T22:16:57.652Z,97427.81
2022-10-03T22:19:34.522Z,97425.19
2022-10-03T22:22:22.840Z,97428.00
2022-10-03T22:25:11.602Z,97424.72
2022-10-03T22:27:48.528Z,97431.94
2022-10-03T22:30:19.806Z,97419.81
2022-10-03T22:33:02.193Z,97419.13
2022-10-03T22:35:49.268Z,97404.38
2022-10-03T22:38:18.516Z,97407.84
2022-10-03T22:40:51.473Z,97415.13
2022-10-03T22:43:20.869Z,97407.47
2022-10-03T22:45:52.331Z,97402.41
2022-10-03T22:48:25.167Z,97400.63
2022-10-03T22:50:54.967Z,97408.44
2022-10-03T22:53:27.085Z,97402.72
2022-10-03T22:56:17.748Z,97405.19
2022-10-03T22:58:45.864Z,97402.81
2022-10-03T23:01:15.243Z,97402.88
2022-10-03T23:03:43.313Z,97393.31
2022-10-03T23:06:31.967Z,97395.50
2022-10-03T23:09:09.691Z,97391.94
2022-10-03T23:11:40.107Z,97385.81
2022-10-03T23:14:16.261Z,97391.25
2022-10-03T23:16:54.055Z,97397.44
2022-10-03T23:19:40.923Z,97388.94
2022-10-03T23:22:15.109Z,97389.03
2022-10-03T23:24:47.691Z,97391.06
2022-10-03T23:27:50.281Z,97386.66
2022-10-03T23:30:55.257Z,97394.94
2022-10-03T23:33:53.155Z,97392.22
2022-10-03T23:36:25.326Z,97392.44
2022-10-03T23:39:01.221Z,97395.19
2022-10-03T23:41:58.775Z,97383.91
2022-10-03T23:44:43.635Z,97388.38
2022-10-03T23:47:18.223Z,97383.19
2022-10-03T23:49:51.483Z,97387.06
2022-10-03T23:52:24.331Z,97382.75
2022-10-03T23:54:55.777Z,97377.41
2022-10-03T23:57:28.199Z,97381.19
2022-10-03T23:59:56.507Z,97369.00
